sensor_id;sensor_type;location;lat;lon;timestamp;P1;durP1;ratioP1;P2;durP2;ratioP2
15764;SDS011;7983;50.744;7.086;2023-06-26T00:01:39;3.80;;;3.33;;
15764;SDS011;7983;50.744;7.086;2023-06-26T00:04:05;3.97;;;3.40;;
15764;SDS011;7983;50.744;7.086;2023-06-26T00:06:33;5.30;;;3.50;;
15764;SDS011;7983;50.744;7.086;2023-06-26T00:09:05;4.03;;;3.55;;
15764;SDS011;7983;50.744;7.086;2023-06-26T00:11:33;3.88;;;3.40;;
15764;SDS011;7983;50.744;7.086;2023-06-26T00:13:59;3.85;;;3.45;;
15764;SDS011;7983;50.744;7.086;2023-06-26T00:16:26;3.85;;;3.45;;
15764;SDS011;7983;50.744;7.086;2023-06-26T00:18:52;4.47;;;3.88;;
15764;SDS011;7983;50.744;7.086;2023-06-26T00:21:21;4.25;;;3.50;;
15764;SDS011;7983;50.744;7.086;2023-06-26T00:23:51;4.28;;;3.88;;
15764;SDS011;7983;50.744;7.086;2023-06-26T00:26:17;3.70;;;3.40;;
15764;SDS011;7983;50.744;7.086;2023-06-26T00:28:42;4.25;;;3.63;;
15764;SDS011;7983;50.744;7.086;2023-06-26T00:31:10;4.72;;;3.63;;
15764;SDS011;7983;50.744;7.086;2023-06-26T00:33:38;3.75;;;3.17;;
15764;SDS011;7983;50.744;7.086;2023-06-26T00:36:04;4.40;;;3.38;;
15764;SDS011;7983;50.744;7.086;2023-06-26T00:38:29;3.72;;;3.40;;
15764;SDS011;7983;50.744;7.086;2023-06-26T00:41:00;4.00;;;3.60;;
15764;SDS011;7983;50.744;7.086;2023-06-26T00:43:27;3.92;;;3.53;;
15764;SDS011;7983;50.744;7.086;2023-06-26T00:45:53;4.07;;;3.60;;
15764;SDS011;7983;50.744;7.086;2023-06-26T00:48:21;4.22;;;3.63;;
15764;SDS011;7983;50.744;7.086;2023-06-26T00:50:47;4.95;;;4.00;;
15764;SDS011;7983;50.744;7.086;2023-06-26T00:53:13;4.32;;;3.42;;
15764;SDS011;7983;50.744;7.086;2023-06-26T00:55:38;4.05;;;3.47;;
15764;SDS011;7983;50.744;7.086;2023-06-26T00:58:08;4.15;;;3.72;;
15764;SDS011;7983;50.744;7.086;2023-06-26T01:00:36;5.85;;;3.60;;
15764;SDS011;7983;50.744;7.086;2023-06-26T01:03:04;3.95;;;3.17;;
15764;SDS011;7983;50.744;7.086;2023-06-26T01:05:30;4.07;;;3.50;;
15764;SDS011;7983;50.744;7.086;2023-06-26T01:07:57;3.75;;;3.35;;
15764;SDS011;7983;50.744;7.086;2023-06-26T01:10:26;4.95;;;3.72;;
15764;SDS011;7983;50.744;7.086;2023-06-26T01:12:54;5.35;;;3.72;;
15764;SDS011;7983;50.744;7.086;2023-06-26T01:15:25;3.88;;;3.42;;
15764;SDS011;7983;50.744;7.086;2023-06-26T01:17:50;4.43;;;3.72;;
15764;SDS011;7983;50.744;7.086;2023-06-26T01:20:17;3.78;;;3.38;;
15764;SDS011;7983;50.744;7.086;2023-06-26T01:25:35;4.22;;;3.67;;
15764;SDS011;7983;50.744;7.086;2023-06-26T01:28:21;5.03;;;3.40;;
15764;SDS011;7983;50.744;7.086;2023-06-26T01:30:51;3.83;;;3.40;;
15764;SDS011;7983;50.744;7.086;2023-06-26T01:33:18;4.05;;;3.30;;
15764;SDS011;7983;50.744;7.086;2023-06-26T01:35:44;4.00;;;3.60;;
15764;SDS011;7983;50.744;7.086;2023-06-26T01:38:14;4.22;;;3.67;;
15764;SDS011;7983;50.744;7.086;2023-06-26T01:40:41;4.50;;;3.60;;
15764;SDS011;7983;50.744;7.086;2023-06-26T01:43:10;4.55;;;3.60;;
15764;SDS011;7983;50.744;7.086;2023-06-26T01:45:48;4.75;;;3.80;;
15764;SDS011;7983;50.744;7.086;2023-06-26T01:48:19;4.03;;;3.60;;
15764;SDS011;7983;50.744;7.086;2023-06-26T01:50:53;4.05;;;3.40;;
15764;SDS011;7983;50.744;7.086;2023-06-26T01:53:24;3.92;;;3.53;;
15764;SDS011;7983;50.744;7.086;2023-06-26T01:55:59;3.70;;;3.33;;
15764;SDS011;7983;50.744;7.086;2023-06-26T01:58:33;3.90;;;3.40;;
15764;SDS011;7983;50.744;7.086;2023-06-26T02:01:00;3.92;;;3.50;;
15764;SDS011;7983;50.744;7.086;2023-06-26T02:03:28;3.90;;;3.47;;
15764;SDS011;7983;50.744;7.086;2023-06-26T02:05:56;3.72;;;3.35;;
15764;SDS011;7983;50.744;7.086;2023-06-26T02:08:26;3.35;;;3.05;;
15764;SDS011;7983;50.744;7.086;2023-06-26T02:10:57;3.90;;;3.22;;
15764;SDS011;7983;50.744;7.086;2023-06-26T02:13:22;3.90;;;3.30;;
15764;SDS011;7983;50.744;7.086;2023-06-26T02:15:48;4.05;;;3.33;;
15764;SDS011;7983;50.744;7.086;2023-06-26T02:18:14;4.15;;;3.55;;
15764;SDS011;7983;50.744;7.086;2023-06-26T02:20:39;3.80;;;3.40;;
15764;SDS011;7983;50.744;7.086;2023-06-26T02:23:08;4.05;;;3.42;;
15764;SDS011;7983;50.744;7.086;2023-06-26T02:25:37;4.70;;;3.33;;
15764;SDS011;7983;50.744;7.086;2023-06-26T02:28:03;4.07;;;3.50;;
15764;SDS011;7983;50.744;7.086;2023-06-26T02:30:31;5.22;;;4.00;;
15764;SDS011;7983;50.744;7.086;2023-06-26T02:32:56;4.53;;;3.80;;
15764;SDS011;7983;50.744;7.086;2023-06-26T02:35:22;4.20;;;3.55;;
15764;SDS011;7983;50.744;7.086;2023-06-26T02:37:48;4.20;;;3.80;;
15764;SDS011;7983;50.744;7.086;2023-06-26T02:40:15;4.10;;;3.70;;
15764;SDS011;7983;50.744;7.086;2023-06-26T02:42:41;3.90;;;3.47;;
15764;SDS011;7983;50.744;7.086;2023-06-26T02:45:07;4.43;;;4.00;;
15764;SDS011;7983;50.744;7.086;2023-06-26T02:47:33;4.68;;;3.70;;
15764;SDS011;7983;50.744;7.086;2023-06-26T02:50:04;3.70;;;3.30;;
15764;SDS011;7983;50.744;7.086;2023-06-26T02:52:33;4.30;;;3.47;;
15764;SDS011;7983;50.744;7.086;2023-06-26T02:55:01;4.45;;;3.80;;
15764;SDS011;7983;50.744;7.086;2023-06-26T02:57:29;4.18;;;3.50;;
15764;SDS011;7983;50.744;7.086;2023-06-26T02:59:54;4.35;;;3.42;;
15764;SDS011;7983;50.744;7.086;2023-06-26T03:02:20;5.25;;;3.67;;
15764;SDS011;7983;50.744;7.086;2023-06-26T03:04:48;3.95;;;3.45;;
15764;SDS011;7983;50.744;7.086;2023-06-26T03:07:20;4.45;;;3.75;;
15764;SDS011;7983;50.744;7.086;2023-06-26T03:09:45;4.00;;;3.60;;
15764;SDS011;7983;50.744;7.086;2023-06-26T03:12:11;4.32;;;3.50;;
15764;SDS011;7983;50.744;7.086;2023-06-26T03:14:37;4.10;;;3.70;;
15764;SDS011;7983;50.744;7.086;2023-06-26T03:17:04;4.20;;;3.50;;
15764;SDS011;7983;50.744;7.086;2023-06-26T03:19:32;3.63;;;3.22;;
15764;SDS011;7983;50.744;7.086;2023-06-26T03:21:57;3.95;;;3.50;;
15764;SDS011;7983;50.744;7.086;2023-06-26T03:24:28;3.60;;;3.30;;
15764;SDS011;7983;50.744;7.086;2023-06-26T03:26:53;4.03;;;3.63;;
15764;SDS011;7983;50.744;7.086;2023-06-26T03:29:19;4.32;;;3.47;;
15764;SDS011;7983;50.744;7.086;2023-06-26T03:31:44;4.88;;;3.90;;
15764;SDS011;7983;50.744;7.086;2023-06-26T03:34:10;4.95;;;3.75;;
15764;SDS011;7983;50.744;7.086;2023-06-26T03:36:38;4.43;;;4.00;;
15764;SDS011;7983;50.744;7.086;2023-06-26T03:39:06;4.50;;;3.88;;
15764;SDS011;7983;50.744;7.086;2023-06-26T03:41:34;4.57;;;3.80;;
15764;SDS011;7983;50.744;7.086;2023-06-26T03:44:01;5.93;;;4.15;;
15764;SDS011;7983;50.744;7.086;2023-06-26T03:46:28;4.97;;;3.97;;
15764;SDS011;7983;50.744;7.086;2023-06-26T03:48:56;4.80;;;4.15;;
15764;SDS011;7983;50.744;7.086;2023-06-26T03:51:22;4.45;;;3.83;;
15764;SDS011;7983;50.744;7.086;2023-06-26T03:53:47;6.60;;;5.53;;
15764;SDS011;7983;50.744;7.086;2023-06-26T03:56:13;6.30;;;5.55;;
15764;SDS011;7983;50.744;7.086;2023-06-26T03:58:39;5.57;;;4.57;;
15764;SDS011;7983;50.744;7.086;2023-06-26T04:01:04;4.97;;;4.47;;
15764;SDS011;7983;50.744;7.086;2023-06-26T04:03:33;4.18;;;3.78;;
15764;SDS011;7983;50.744;7.086;2023-06-26T04:06:01;4.35;;;3.95;;
15764;SDS011;7983;50.744;7.086;2023-06-26T04:08:29;4.30;;;3.67;;
15764;SDS011;7983;50.744;7.086;2023-06-26T04:10:55;4.70;;;4.03;;
15764;SDS011;7983;50.744;7.086;2023-06-26T04:13:22;4.18;;;3.65;;
15764;SDS011;7983;50.744;7.086;2023-06-26T04:15:48;4.18;;;3.78;;
15764;SDS011;7983;50.744;7.086;2023-06-26T04:18:13;5.63;;;3.60;;
15764;SDS011;7983;50.744;7.086;2023-06-26T04:20:39;5.35;;;4.53;;
15764;SDS011;7983;50.744;7.086;2023-06-26T04:23:28;4.25;;;3.72;;
15764;SDS011;7983;50.744;7.086;2023-06-26T04:25:56;4.65;;;3.47;;
15764;SDS011;7983;50.744;7.086;2023-06-26T04:28:23;3.80;;;3.40;;
15764;SDS011;7983;50.744;7.086;2023-06-26T04:30:49;3.72;;;3.20;;
15764;SDS011;7983;50.744;7.086;2023-06-26T04:33:15;4.60;;;3.67;;
15764;SDS011;7983;50.744;7.086;2023-06-26T04:35:40;3.90;;;3.42;;
15764;SDS011;7983;50.744;7.086;2023-06-26T04:38:06;4.30;;;3.53;;
15764;SDS011;7983;50.744;7.086;2023-06-26T04:40:34;3.60;;;3.20;;
15764;SDS011;7983;50.744;7.086;2023-06-26T04:43:02;4.07;;;3.20;;
15764;SDS011;7983;50.744;7.086;2023-06-26T04:45:30;3.72;;;3.25;;
15764;SDS011;7983;50.744;7.086;2023-06-26T04:47:55;3.90;;;3.50;;
15764;SDS011;7983;50.744;7.086;2023-06-26T04:50:24;3.50;;;3.17;;
15764;SDS011;7983;50.744;7.086;2023-06-26T04:52:50;3.67;;;2.90;;
15764;SDS011;7983;50.744;7.086;2023-06-26T04:55:16;4.65;;;3.67;;
15764;SDS011;7983;50.744;7.086;2023-06-26T04:57:41;5.40;;;3.58;;
15764;SDS011;7983;50.744;7.086;2023-06-26T05:00:07;3.78;;;3.20;;
15764;SDS011;7983;50.744;7.086;2023-06-26T05:02:36;3.80;;;3.47;;
15764;SDS011;7983;50.744;7.086;2023-06-26T05:05:02;3.85;;;3.45;;
15764;SDS011;7983;50.744;7.086;2023-06-26T05:07:27;4.25;;;3.30;;
15764;SDS011;7983;50.744;7.086;2023-06-26T05:09:55;6.05;;;3.50;;
15764;SDS011;7983;50.744;7.086;2023-06-26T05:12:23;4.00;;;3.30;;
15764;SDS011;7983;50.744;7.086;2023-06-26T05:14:51;4.22;;;3.45;;
15764;SDS011;7983;50.744;7.086;2023-06-26T05:17:16;4.75;;;3.30;;
15764;SDS011;7983;50.744;7.086;2023-06-26T05:19:42;4.07;;;3.55;;
15764;SDS011;7983;50.744;7.086;2023-06-26T05:22:08;3.72;;;3.20;;
15764;SDS011;7983;50.744;7.086;2023-06-26T05:24:37;4.10;;;3.70;;
15764;SDS011;7983;50.744;7.086;2023-06-26T05:27:03;4.03;;;3.53;;
15764;SDS011;7983;50.744;7.086;2023-06-26T05:29:30;4.10;;;3.40;;
15764;SDS011;7983;50.744;7.086;2023-06-26T05:32:02;3.92;;;3.10;;
15764;SDS011;7983;50.744;7.086;2023-06-26T05:34:28;4.40;;;3.22;;
15764;SDS011;7983;50.744;7.086;2023-06-26T05:36:59;4.38;;;3.20;;
15764;SDS011;7983;50.744;7.086;2023-06-26T05:39:29;3.97;;;3.40;;
15764;SDS011;7983;50.744;7.086;2023-06-26T05:41:55;4.40;;;3.63;;
15764;SDS011;7983;50.744;7.086;2023-06-26T05:44:21;5.20;;;3.53;;
15764;SDS011;7983;50.744;7.086;2023-06-26T05:46:47;4.20;;;3.25;;
15764;SDS011;7983;50.744;7.086;2023-06-26T05:49:14;7.40;;;3.40;;
15764;SDS011;7983;50.744;7.086;2023-06-26T05:51:45;3.88;;;3.25;;
15764;SDS011;7983;50.744;7.086;2023-06-26T05:54:13;4.70;;;3.40;;
15764;SDS011;7983;50.744;7.086;2023-06-26T05:56:39;4.30;;;3.25;;
15764;SDS011;7983;50.744;7.086;2023-06-26T05:59:06;4.20;;;2.90;;
15764;SDS011;7983;50.744;7.086;2023-06-26T06:01:33;3.22;;;2.85;;
15764;SDS011;7983;50.744;7.086;2023-06-26T06:04:00;4.25;;;3.35;;
15764;SDS011;7983;50.744;7.086;2023-06-26T06:06:25;3.25;;;2.92;;
15764;SDS011;7983;50.744;7.086;2023-06-26T06:08:53;3.58;;;2.95;;
15764;SDS011;7983;50.744;7.086;2023-06-26T06:11:19;4.65;;;2.95;;
15764;SDS011;7983;50.744;7.086;2023-06-26T06:13:44;2.90;;;2.58;;
15764;SDS011;7983;50.744;7.086;2023-06-26T06:16:10;4.20;;;3.20;;
15764;SDS011;7983;50.744;7.086;2023-06-26T06:18:36;5.03;;;2.95;;
15764;SDS011;7983;50.744;7.086;2023-06-26T06:21:04;3.42;;;2.60;;
15764;SDS011;7983;50.744;7.086;2023-06-26T06:23:32;4.43;;;2.78;;
15764;SDS011;7983;50.744;7.086;2023-06-26T06:25:59;3.13;;;2.38;;
15764;SDS011;7983;50.744;7.086;2023-06-26T06:28:28;4.07;;;2.70;;
15764;SDS011;7983;50.744;7.086;2023-06-26T06:30:53;3.60;;;2.60;;
15764;SDS011;7983;50.744;7.086;2023-06-26T06:33:22;3.95;;;2.80;;
15764;SDS011;7983;50.744;7.086;2023-06-26T06:35:49;3.67;;;2.47;;
15764;SDS011;7983;50.744;7.086;2023-06-26T06:38:17;3.47;;;2.83;;
15764;SDS011;7983;50.744;7.086;2023-06-26T06:40:45;3.78;;;2.67;;
15764;SDS011;7983;50.744;7.086;2023-06-26T06:43:13;4.78;;;2.85;;
15764;SDS011;7983;50.744;7.086;2023-06-26T06:45:39;3.45;;;2.70;;
15764;SDS011;7983;50.744;7.086;2023-06-26T06:48:05;5.15;;;2.53;;
15764;SDS011;7983;50.744;7.086;2023-06-26T06:50:31;4.20;;;2.70;;
15764;SDS011;7983;50.744;7.086;2023-06-26T06:52:56;3.85;;;2.72;;
15764;SDS011;7983;50.744;7.086;2023-06-26T06:55:22;3.80;;;2.40;;
15764;SDS011;7983;50.744;7.086;2023-06-26T06:57:50;4.78;;;2.70;;
15764;SDS011;7983;50.744;7.086;2023-06-26T07:00:16;5.18;;;2.65;;
15764;SDS011;7983;50.744;7.086;2023-06-26T07:02:43;5.85;;;2.42;;
15764;SDS011;7983;50.744;7.086;2023-06-26T07:05:10;3.97;;;2.50;;
15764;SDS011;7983;50.744;7.086;2023-06-26T07:07:38;3.88;;;2.30;;
15764;SDS011;7983;50.744;7.086;2023-06-26T07:10:08;6.55;;;3.20;;
15764;SDS011;7983;50.744;7.086;2023-06-26T07:12:35;4.85;;;2.50;;
15764;SDS011;7983;50.744;7.086;2023-06-26T07:15:04;3.50;;;2.50;;
15764;SDS011;7983;50.744;7.086;2023-06-26T07:17:34;5.07;;;2.90;;
15764;SDS011;7983;50.744;7.086;2023-06-26T07:20:03;3.53;;;2.75;;
15764;SDS011;7983;50.744;7.086;2023-06-26T07:22:31;3.80;;;2.53;;
15764;SDS011;7983;50.744;7.086;2023-06-26T07:24:59;4.75;;;2.80;;
15764;SDS011;7983;50.744;7.086;2023-06-26T07:27:34;5.63;;;2.70;;
15764;SDS011;7983;50.744;7.086;2023-06-26T07:30:00;3.53;;;2.60;;
15764;SDS011;7983;50.744;7.086;2023-06-26T07:32:25;5.75;;;2.90;;
15764;SDS011;7983;50.744;7.086;2023-06-26T07:34:56;4.68;;;2.40;;
15764;SDS011;7983;50.744;7.086;2023-06-26T07:37:24;4.50;;;2.42;;
15764;SDS011;7983;50.744;7.086;2023-06-26T07:39:49;5.07;;;2.80;;
15764;SDS011;7983;50.744;7.086;2023-06-26T07:42:18;3.47;;;2.40;;
15764;SDS011;7983;50.744;7.086;2023-06-26T07:44:43;4.20;;;2.70;;
15764;SDS011;7983;50.744;7.086;2023-06-26T07:47:12;4.53;;;2.58;;
15764;SDS011;7983;50.744;7.086;2023-06-26T07:49:40;4.93;;;3.00;;
15764;SDS011;7983;50.744;7.086;2023-06-26T07:52:08;5.18;;;3.38;;
15764;SDS011;7983;50.744;7.086;2023-06-26T07:54:36;4.60;;;2.70;;
15764;SDS011;7983;50.744;7.086;2023-06-26T07:57:05;5.70;;;3.00;;
15764;SDS011;7983;50.744;7.086;2023-06-26T07:59:34;5.38;;;3.08;;
15764;SDS011;7983;50.744;7.086;2023-06-26T08:02:00;7.40;;;3.42;;
15764;SDS011;7983;50.744;7.086;2023-06-26T08:04:28;6.70;;;3.03;;
15764;SDS011;7983;50.744;7.086;2023-06-26T08:06:58;5.90;;;2.80;;
15764;SDS011;7983;50.744;7.086;2023-06-26T08:09:26;4.32;;;2.50;;
15764;SDS011;7983;50.744;7.086;2023-06-26T08:11:53;5.15;;;2.28;;
15764;SDS011;7983;50.744;7.086;2023-06-26T08:14:26;4.60;;;2.83;;
15764;SDS011;7983;50.744;7.086;2023-06-26T08:16:52;6.82;;;2.97;;
15764;SDS011;7983;50.744;7.086;2023-06-26T08:19:20;4.50;;;2.78;;
15764;SDS011;7983;50.744;7.086;2023-06-26T08:21:48;4.07;;;2.60;;
15764;SDS011;7983;50.744;7.086;2023-06-26T08:24:16;5.22;;;2.90;;
15764;SDS011;7983;50.744;7.086;2023-06-26T08:26:44;5.32;;;3.10;;
15764;SDS011;7983;50.744;7.086;2023-06-26T08:29:11;5.47;;;3.13;;
15764;SDS011;7983;50.744;7.086;2023-06-26T08:31:40;4.60;;;2.45;;
15764;SDS011;7983;50.744;7.086;2023-06-26T08:34:07;2.92;;;2.13;;
15764;SDS011;7983;50.744;7.086;2023-06-26T08:36:33;3.90;;;2.80;;
15764;SDS011;7983;50.744;7.086;2023-06-26T08:38:58;4.68;;;2.42;;
15764;SDS011;7983;50.744;7.086;2023-06-26T08:41:24;3.80;;;2.42;;
15764;SDS011;7983;50.744;7.086;2023-06-26T08:43:50;3.85;;;2.55;;
15764;SDS011;7983;50.744;7.086;2023-06-26T08:46:17;3.85;;;2.60;;
15764;SDS011;7983;50.744;7.086;2023-06-26T08:48:45;5.93;;;3.13;;
15764;SDS011;7983;50.744;7.086;2023-06-26T08:51:17;4.85;;;2.72;;
15764;SDS011;7983;50.744;7.086;2023-06-26T08:53:52;3.95;;;2.83;;
15764;SDS011;7983;50.744;7.086;2023-06-26T08:56:39;3.60;;;2.42;;
15764;SDS011;7983;50.744;7.086;2023-06-26T08:59:08;4.13;;;2.60;;
15764;SDS011;7983;50.744;7.086;2023-06-26T09:01:35;3.38;;;2.10;;
15764;SDS011;7983;50.744;7.086;2023-06-26T09:04:07;3.58;;;2.55;;
15764;SDS011;7983;50.744;7.086;2023-06-26T09:06:35;3.83;;;2.35;;
15764;SDS011;7983;50.744;7.086;2023-06-26T09:09:00;5.72;;;2.47;;
15764;SDS011;7983;50.744;7.086;2023-06-26T09:11:26;6.50;;;2.47;;
15764;SDS011;7983;50.744;7.086;2023-06-26T09:13:55;4.47;;;2.38;;
15764;SDS011;7983;50.744;7.086;2023-06-26T09:16:29;5.15;;;2.58;;
15764;SDS011;7983;50.744;7.086;2023-06-26T09:18:57;6.00;;;2.50;;
15764;SDS011;7983;50.744;7.086;2023-06-26T09:21:23;4.55;;;2.47;;
15764;SDS011;7983;50.744;7.086;2023-06-26T09:23:52;3.97;;;2.38;;
15764;SDS011;7983;50.744;7.086;2023-06-26T09:26:17;4.15;;;2.40;;
15764;SDS011;7983;50.744;7.086;2023-06-26T09:28:43;7.25;;;2.60;;
15764;SDS011;7983;50.744;7.086;2023-06-26T09:31:13;6.47;;;2.75;;
15764;SDS011;7983;50.744;7.086;2023-06-26T09:33:41;3.50;;;2.00;;
15764;SDS011;7983;50.744;7.086;2023-06-26T09:36:08;3.92;;;2.05;;
15764;SDS011;7983;50.744;7.086;2023-06-26T09:38:43;3.22;;;2.20;;
15764;SDS011;7983;50.744;7.086;2023-06-26T09:41:08;4.07;;;1.98;;
15764;SDS011;7983;50.744;7.086;2023-06-26T09:43:34;3.83;;;2.22;;
15764;SDS011;7983;50.744;7.086;2023-06-26T09:49:12;3.72;;;2.00;;
15764;SDS011;7983;50.744;7.086;2023-06-26T09:51:40;4.28;;;2.00;;
15764;SDS011;7983;50.744;7.086;2023-06-26T09:54:09;4.18;;;2.10;;
15764;SDS011;7983;50.744;7.086;2023-06-26T09:56:35;2.80;;;1.83;;
15764;SDS011;7983;50.744;7.086;2023-06-26T09:59:02;4.20;;;1.92;;
15764;SDS011;7983;50.744;7.086;2023-06-26T10:01:31;2.40;;;1.70;;
15764;SDS011;7983;50.744;7.086;2023-06-26T10:03:57;5.20;;;1.50;;
15764;SDS011;7983;50.744;7.086;2023-06-26T10:06:32;3.88;;;1.80;;
15764;SDS011;7983;50.744;7.086;2023-06-26T10:09:03;3.78;;;1.90;;
15764;SDS011;7983;50.744;7.086;2023-06-26T10:14:25;4.55;;;2.10;;
15764;SDS011;7983;50.744;7.086;2023-06-26T10:16:52;3.10;;;1.70;;
15764;SDS011;7983;50.744;7.086;2023-06-26T10:19:25;3.40;;;1.67;;
15764;SDS011;7983;50.744;7.086;2023-06-26T10:21:53;3.88;;;1.80;;
15764;SDS011;7983;50.744;7.086;2023-06-26T10:24:20;4.63;;;2.08;;
15764;SDS011;7983;50.744;7.086;2023-06-26T10:26:49;4.30;;;1.70;;
15764;SDS011;7983;50.744;7.086;2023-06-26T10:29:17;4.55;;;1.70;;
15764;SDS011;7983;50.744;7.086;2023-06-26T10:31:48;3.55;;;1.70;;
15764;SDS011;7983;50.744;7.086;2023-06-26T10:34:22;3.58;;;1.60;;
15764;SDS011;7983;50.744;7.086;2023-06-26T10:36:48;2.15;;;1.38;;
15764;SDS011;7983;50.744;7.086;2023-06-26T10:39:45;2.25;;;1.33;;
15764;SDS011;7983;50.744;7.086;2023-06-26T10:42:19;8.73;;;1.55;;
15764;SDS011;7983;50.744;7.086;2023-06-26T10:45:11;2.55;;;1.58;;
15764;SDS011;7983;50.744;7.086;2023-06-26T10:47:44;7.93;;;1.90;;
15764;SDS011;7983;50.744;7.086;2023-06-26T10:50:25;2.35;;;1.30;;
15764;SDS011;7983;50.744;7.086;2023-06-26T10:55:49;3.13;;;1.83;;
15764;SDS011;7983;50.744;7.086;2023-06-26T11:03:39;4.32;;;1.13;;
15764;SDS011;7983;50.744;7.086;2023-06-26T11:06:12;6.20;;;1.40;;
15764;SDS011;7983;50.744;7.086;2023-06-26T11:11:12;2.75;;;1.50;;
15764;SDS011;7983;50.744;7.086;2023-06-26T11:13:44;2.83;;;1.48;;
15764;SDS011;7983;50.744;7.086;2023-06-26T11:16:11;3.67;;;1.55;;
15764;SDS011;7983;50.744;7.086;2023-06-26T11:18:43;3.58;;;1.42;;
15764;SDS011;7983;50.744;7.086;2023-06-26T11:21:20;2.25;;;1.23;;
15764;SDS011;7983;50.744;7.086;2023-06-26T11:23:52;2.60;;;1.30;;
15764;SDS011;7983;50.744;7.086;2023-06-26T11:26:25;3.15;;;1.60;;
15764;SDS011;7983;50.744;7.086;2023-06-26T11:28:53;2.70;;;1.40;;
15764;SDS011;7983;50.744;7.086;2023-06-26T11:33:56;2.35;;;1.13;;
15764;SDS011;7983;50.744;7.086;2023-06-26T11:36:30;2.80;;;1.55;;
15764;SDS011;7983;50.744;7.086;2023-06-26T11:38:57;3.70;;;1.30;;
15764;SDS011;7983;50.744;7.086;2023-06-26T11:41:29;6.78;;;1.73;;
15764;SDS011;7983;50.744;7.086;2023-06-26T11:43:56;3.78;;;1.50;;
15764;SDS011;7983;50.744;7.086;2023-06-26T11:46:27;3.33;;;1.15;;
15764;SDS011;7983;50.744;7.086;2023-06-26T11:48:56;2.35;;;1.38;;
15764;SDS011;7983;50.744;7.086;2023-06-26T11:51:21;2.75;;;1.40;;
15764;SDS011;7983;50.744;7.086;2023-06-26T11:53:50;2.75;;;1.30;;
15764;SDS011;7983;50.744;7.086;2023-06-26T11:56:16;2.78;;;1.30;;
15764;SDS011;7983;50.744;7.086;2023-06-26T11:59:03;7.82;;;1.63;;
15764;SDS011;7983;50.744;7.086;2023-06-26T12:01:39;2.53;;;1.35;;
15764;SDS011;7983;50.744;7.086;2023-06-26T12:04:12;2.85;;;1.30;;
15764;SDS011;7983;50.744;7.086;2023-06-26T12:06:42;2.95;;;1.33;;
15764;SDS011;7983;50.744;7.086;2023-06-26T12:09:14;2.97;;;1.40;;
15764;SDS011;7983;50.744;7.086;2023-06-26T12:11:46;2.40;;;1.55;;
15764;SDS011;7983;50.744;7.086;2023-06-26T12:14:19;2.67;;;1.60;;
15764;SDS011;7983;50.744;7.086;2023-06-26T12:16:52;4.03;;;1.55;;
15764;SDS011;7983;50.744;7.086;2023-06-26T12:22:22;1.95;;;1.25;;
15764;SDS011;7983;50.744;7.086;2023-06-26T12:25:27;2.40;;;1.17;;
15764;SDS011;7983;50.744;7.086;2023-06-26T12:28:18;4.05;;;1.70;;
15764;SDS011;7983;50.744;7.086;2023-06-26T12:31:09;3.28;;;1.23;;
15764;SDS011;7983;50.744;7.086;2023-06-26T12:33:45;4.13;;;1.48;;
15764;SDS011;7983;50.744;7.086;2023-06-26T12:36:11;2.08;;;1.50;;
15764;SDS011;7983;50.744;7.086;2023-06-26T12:38:37;2.17;;;1.30;;
15764;SDS011;7983;50.744;7.086;2023-06-26T12:41:03;3.45;;;1.60;;
15764;SDS011;7983;50.744;7.086;2023-06-26T12:43:29;4.60;;;1.40;;
15764;SDS011;7983;50.744;7.086;2023-06-26T12:45:55;2.78;;;1.30;;
15764;SDS011;7983;50.744;7.086;2023-06-26T12:51:16;2.40;;;1.40;;
15764;SDS011;7983;50.744;7.086;2023-06-26T12:53:43;3.63;;;1.63;;
15764;SDS011;7983;50.744;7.086;2023-06-26T12:56:09;2.10;;;1.05;;
15764;SDS011;7983;50.744;7.086;2023-06-26T12:58:37;3.95;;;1.30;;
15764;SDS011;7983;50.744;7.086;2023-06-26T13:01:03;2.08;;;1.40;;
15764;SDS011;7983;50.744;7.086;2023-06-26T13:03:40;1.83;;;1.30;;
15764;SDS011;7983;50.744;7.086;2023-06-26T13:06:06;2.47;;;1.40;;
15764;SDS011;7983;50.744;7.086;2023-06-26T13:08:34;2.83;;;1.30;;
15764;SDS011;7983;50.744;7.086;2023-06-26T13:11:00;2.35;;;1.40;;
15764;SDS011;7983;50.744;7.086;2023-06-26T13:13:25;3.50;;;1.42;;
15764;SDS011;7983;50.744;7.086;2023-06-26T13:15:51;2.33;;;1.50;;
15764;SDS011;7983;50.744;7.086;2023-06-26T13:20:51;2.65;;;1.48;;
15764;SDS011;7983;50.744;7.086;2023-06-26T13:23:17;2.08;;;1.20;;
15764;SDS011;7983;50.744;7.086;2023-06-26T13:25:44;2.55;;;1.40;;
15764;SDS011;7983;50.744;7.086;2023-06-26T13:28:22;1.77;;;1.20;;
15764;SDS011;7983;50.744;7.086;2023-06-26T13:30:50;2.95;;;1.23;;
15764;SDS011;7983;50.744;7.086;2023-06-26T13:33:18;2.50;;;1.25;;
15764;SDS011;7983;50.744;7.086;2023-06-26T13:35:46;2.15;;;1.10;;
15764;SDS011;7983;50.744;7.086;2023-06-26T13:38:12;4.28;;;1.40;;
15764;SDS011;7983;50.744;7.086;2023-06-26T13:40:38;2.30;;;1.40;;
15764;SDS011;7983;50.744;7.086;2023-06-26T13:43:03;4.72;;;1.58;;
15764;SDS011;7983;50.744;7.086;2023-06-26T13:45:29;2.95;;;1.30;;
15764;SDS011;7983;50.744;7.086;2023-06-26T13:47:57;6.53;;;1.25;;
15764;SDS011;7983;50.744;7.086;2023-06-26T13:50:24;4.38;;;1.20;;
15764;SDS011;7983;50.744;7.086;2023-06-26T13:52:50;4.38;;;1.30;;
15764;SDS011;7983;50.744;7.086;2023-06-26T13:55:16;3.50;;;1.30;;
15764;SDS011;7983;50.744;7.086;2023-06-26T13:57:50;4.03;;;1.23;;
15764;SDS011;7983;50.744;7.086;2023-06-26T14:00:15;2.08;;;1.23;;
15764;SDS011;7983;50.744;7.086;2023-06-26T14:02:47;5.63;;;1.23;;
15764;SDS011;7983;50.744;7.086;2023-06-26T14:05:13;3.42;;;1.35;;
15764;SDS011;7983;50.744;7.086;2023-06-26T14:07:44;1.88;;;1.00;;
15764;SDS011;7983;50.744;7.086;2023-06-26T14:10:15;2.45;;;0.90;;
15764;SDS011;7983;50.744;7.086;2023-06-26T14:12:41;3.50;;;1.20;;
15764;SDS011;7983;50.744;7.086;2023-06-26T14:15:06;2.72;;;1.10;;
15764;SDS011;7983;50.744;7.086;2023-06-26T14:17:35;3.30;;;1.10;;
15764;SDS011;7983;50.744;7.086;2023-06-26T14:20:00;3.53;;;1.20;;
15764;SDS011;7983;50.744;7.086;2023-06-26T14:22:26;12.88;;;1.52;;
15764;SDS011;7983;50.744;7.086;2023-06-26T14:24:52;2.22;;;1.00;;
15764;SDS011;7983;50.744;7.086;2023-06-26T14:27:20;2.67;;;1.17;;
15764;SDS011;7983;50.744;7.086;2023-06-26T14:29:46;5.03;;;1.45;;
15764;SDS011;7983;50.744;7.086;2023-06-26T14:32:15;2.90;;;1.20;;
15764;SDS011;7983;50.744;7.086;2023-06-26T14:34:46;3.25;;;1.08;;
15764;SDS011;7983;50.744;7.086;2023-06-26T14:37:14;4.63;;;1.20;;
15764;SDS011;7983;50.744;7.086;2023-06-26T14:39:43;2.80;;;0.90;;
15764;SDS011;7983;50.744;7.086;2023-06-26T14:42:12;4.32;;;1.40;;
15764;SDS011;7983;50.744;7.086;2023-06-26T14:44:40;3.22;;;1.38;;
15764;SDS011;7983;50.744;7.086;2023-06-26T14:47:06;2.90;;;1.20;;
15764;SDS011;7983;50.744;7.086;2023-06-26T14:49:31;2.80;;;1.45;;
15764;SDS011;7983;50.744;7.086;2023-06-26T14:51:59;2.45;;;1.20;;
15764;SDS011;7983;50.744;7.086;2023-06-26T14:54:25;3.45;;;1.08;;
15764;SDS011;7983;50.744;7.086;2023-06-26T14:56:53;2.28;;;1.00;;
15764;SDS011;7983;50.744;7.086;2023-06-26T14:59:21;2.17;;;1.13;;
15764;SDS011;7983;50.744;7.086;2023-06-26T15:01:49;4.32;;;1.40;;
15764;SDS011;7983;50.744;7.086;2023-06-26T15:04:17;1.15;;;0.90;;
15764;SDS011;7983;50.744;7.086;2023-06-26T15:06:42;2.00;;;1.15;;
15764;SDS011;7983;50.744;7.086;2023-06-26T15:09:08;2.17;;;1.10;;
15764;SDS011;7983;50.744;7.086;2023-06-26T15:11:34;2.63;;;1.20;;
15764;SDS011;7983;50.744;7.086;2023-06-26T15:14:01;3.25;;;1.30;;
15764;SDS011;7983;50.744;7.086;2023-06-26T15:16:26;2.72;;;1.05;;
15764;SDS011;7983;50.744;7.086;2023-06-26T15:19:00;1.85;;;1.00;;
15764;SDS011;7983;50.744;7.086;2023-06-26T15:21:26;2.47;;;1.00;;
15764;SDS011;7983;50.744;7.086;2023-06-26T15:23:55;2.45;;;1.00;;
15764;SDS011;7983;50.744;7.086;2023-06-26T15:26:21;2.00;;;1.00;;
15764;SDS011;7983;50.744;7.086;2023-06-26T15:28:56;2.50;;;0.98;;
15764;SDS011;7983;50.744;7.086;2023-06-26T15:31:28;3.53;;;1.23;;
15764;SDS011;7983;50.744;7.086;2023-06-26T15:33:56;2.05;;;1.15;;
15764;SDS011;7983;50.744;7.086;2023-06-26T15:36:27;3.08;;;0.95;;
15764;SDS011;7983;50.744;7.086;2023-06-26T15:39:22;3.97;;;1.50;;